TimeEST,TemperatureF,Dew PointF,Humidity,Sea Level PressureIn,VisibilityMPH,Wind Direction,Wind SpeedMPH,Gust SpeedMPH,PrecipitationIn,Events,Conditions,WindDirDegrees,DateUTC
12:15 AM,30.9,29.1,93,30.41,10.0,Calm,Calm,-,N/A,,Scattered Clouds,0,2012-11-13 05:15:00
12:35 AM,30.2,28.9,95,30.42,10.0,Calm,Calm,-,N/A,,Mostly Cloudy,0,2012-11-13 05:35:00
12:55 AM,30.9,29.3,94,30.42,10.0,Calm,Calm,-,N/A,,Scattered Clouds,0,2012-11-13 05:55:00
1:15 AM,30.4,29.1,95,30.42,10.0,Calm,Calm,-,N/A,,Scattered Clouds,0,2012-11-13 06:15:00
1:35 AM,30.0,28.9,96,30.42,10.0,Calm,Calm,-,N/A,,Scattered Clouds,0,2012-11-13 06:35:00
1:55 AM,30.0,29.1,96,30.41,10.0,Calm,Calm,-,N/A,,Clear,0,2012-11-13 06:55:00
2:15 AM,30.0,29.1,96,30.41,10.0,Calm,Calm,-,N/A,,Clear,0,2012-11-13 07:15:00
2:35 AM,29.1,28.2,96,30.42,0.8,Calm,Calm,-,N/A,,Mist,0,2012-11-13 07:35:00
2:55 AM,28.9,28.0,96,30.42,1.5,Calm,Calm,-,N/A,,Mist,0,2012-11-13 07:55:00
3:15 AM,28.0,27.3,97,30.42,0.5,Calm,Calm,-,N/A,Fog,Light Freezing Fog,0,2012-11-13 08:15:00
3:35 AM,26.6,25.7,96,30.41,1.0,Calm,Calm,-,N/A,,Mist,0,2012-11-13 08:35:00
3:55 AM,28.4,27.5,96,30.42,4.0,Calm,Calm,-,N/A,,Clear,0,2012-11-13 08:55:00
4:15 AM,26.6,25.9,97,30.42,4.0,Calm,Calm,-,N/A,,Clear,0,2012-11-13 09:15:00
4:35 AM,27.0,26.2,97,30.42,5.0,Calm,Calm,-,N/A,,Clear,0,2012-11-13 09:35:00
4:55 AM,28.2,27.3,96,30.42,7.0,Calm,Calm,-,N/A,,Clear,0,2012-11-13 09:55:00
5:15 AM,26.4,25.7,97,30.42,7.0,Calm,Calm,-,N/A,,Clear,0,2012-11-13 10:15:00
5:35 AM,26.2,25.3,96,30.42,5.0,Calm,Calm,-,N/A,,Clear,0,2012-11-13 10:35:00
6:15 AM,25.7,24.8,96,30.43,7.0,Calm,Calm,-,N/A,,Clear,0,2012-11-13 11:15:00
6:35 AM,24.8,23.9,96,30.43,7.0,Calm,Calm,-,N/A,,Clear,0,2012-11-13 11:35:00
6:55 AM,24.4,23.5,96,30.44,10.0,Calm,Calm,-,N/A,,Clear,0,2012-11-13 11:55:00
7:15 AM,23.9,23.0,96,30.44,10.0,Calm,Calm,-,N/A,,Clear,0,2012-11-13 12:15:00
7:35 AM,24.3,23.2,96,30.45,7.0,Calm,Calm,-,N/A,,Clear,0,2012-11-13 12:35:00
8:15 AM,25.5,24.6,96,30.47,10.0,Calm,Calm,-,N/A,,Clear,0,2012-11-13 13:15:00
8:35 AM,26.8,25.9,96,30.47,10.0,Calm,Calm,-,N/A,,Clear,0,2012-11-13 13:35:00
8:55 AM,29.1,28.4,97,30.48,7.0,Calm,Calm,-,N/A,,Clear,0,2012-11-13 13:55:00
9:15 AM,31.3,30.4,96,30.47,10.0,Calm,Calm,-,N/A,,Clear,0,2012-11-13 14:15:00
9:35 AM,33.6,31.6,92,30.48,10.0,WSW,3.5,-,N/A,,Clear,240,2012-11-13 14:35:00
9:55 AM,35.8,30.6,81,30.48,10.0,WSW,4.6,-,N/A,,Clear,240,2012-11-13 14:55:00
10:15 AM,36.5,29.5,76,30.48,10.0,West,4.6,-,N/A,,Clear,270,2012-11-13 15:15:00
10:35 AM,38.5,29.8,71,30.48,10.0,West,4.6,-,N/A,,Clear,260,2012-11-13 15:35:00
10:55 AM,38.5,26.4,62,30.48,10.0,Calm,Calm,-,N/A,,Clear,0,2012-11-13 15:55:00
11:15 AM,38.3,25.0,59,30.48,10.0,West,5.8,-,N/A,,Clear,260,2012-11-13 16:15:00
11:35 AM,38.7,25.2,58,30.47,10.0,Calm,Calm,-,N/A,,Scattered Clouds,0,2012-11-13 16:35:00
11:55 AM,40.1,25.2,55,30.47,10.0,West,10.4,-,N/A,,Scattered Clouds,260,2012-11-13 16:55:00
12:15 PM,41.2,24.4,51,30.46,10.0,West,5.8,-,N/A,,Mostly Cloudy,260,2012-11-13 17:15:00
12:35 PM,41.4,24.4,51,30.45,10.0,WSW,8.1,-,N/A,,Mostly Cloudy,250,2012-11-13 17:35:00
12:55 PM,41.0,23.9,51,30.44,10.0,WNW,5.8,-,N/A,,Overcast,290,2012-11-13 17:55:00
1:15 PM,42.1,22.8,46,30.44,10.0,WNW,5.8,-,N/A,,Scattered Clouds,290,2012-11-13 18:15:00
1:35 PM,42.4,22.8,46,30.44,10.0,SW,3.5,-,N/A,,Scattered Clouds,220,2012-11-13 18:35:00
1:55 PM,43.5,23.7,46,30.44,10.0,West,6.9,-,N/A,,Mostly Cloudy,260,2012-11-13 18:55:00
2:15 PM,40.5,22.6,49,30.44,10.0,NW,4.6,-,N/A,,Scattered Clouds,310,2012-11-13 19:15:00
2:35 PM,41.5,22.6,47,30.43,10.0,Calm,Calm,-,N/A,,Clear,0,2012-11-13 19:35:00
2:55 PM,43.3,22.8,44,30.43,10.0,WSW,4.6,-,N/A,,Mostly Cloudy,250,2012-11-13 19:55:00
3:15 PM,43.0,23.0,45,30.43,10.0,North,8.1,-,N/A,,Overcast,360,2012-11-13 20:15:00
3:35 PM,41.5,22.8,47,30.44,10.0,NNW,5.8,-,N/A,,Mostly Cloudy,340,2012-11-13 20:35:00
3:55 PM,42.3,22.8,46,30.44,10.0,North,6.9,-,N/A,,Clear,350,2012-11-13 20:55:00
4:15 PM,40.3,23.0,50,30.44,10.0,NW,3.5,-,N/A,,Clear,320,2012-11-13 21:15:00
4:35 PM,40.5,24.1,52,30.44,10.0,WNW,3.5,-,N/A,,Scattered Clouds,300,2012-11-13 21:35:00
4:55 PM,40.3,23.5,51,30.45,10.0,North,3.5,-,N/A,,Mostly Cloudy,360,2012-11-13 21:55:00
5:15 PM,39.2,23.0,52,30.44,10.0,North,3.5,-,N/A,,Scattered Clouds,350,2012-11-13 22:15:00
5:35 PM,38.3,23.4,55,30.44,10.0,Calm,Calm,-,N/A,,Clear,0,2012-11-13 22:35:00
5:55 PM,37.4,23.5,57,30.45,10.0,Calm,Calm,-,N/A,,Clear,0,2012-11-13 22:55:00
6:15 PM,34.7,24.8,67,30.46,10.0,Calm,Calm,-,N/A,,Clear,0,2012-11-13 23:15:00
6:35 PM,33.8,24.6,69,30.46,10.0,Calm,Calm,-,N/A,,Clear,0,2012-11-13 23:35:00
6:55 PM,33.4,24.4,70,30.47,10.0,Calm,Calm,-,N/A,,Clear,0,2012-11-13 23:55:00
7:15 PM,32.0,25.5,77,30.47,10.0,Calm,Calm,-,N/A,,Clear,0,2012-11-14 00:15:00
7:35 PM,31.1,25.0,78,30.47,10.0,Calm,Calm,-,N/A,,Clear,0,2012-11-14 00:35:00
7:55 PM,30.2,24.4,79,30.47,10.0,Calm,Calm,-,N/A,,Clear,0,2012-11-14 00:55:00
8:15 PM,30.2,25.0,81,30.48,10.0,Calm,Calm,-,N/A,,Clear,0,2012-11-14 01:15:00
8:35 PM,28.9,24.8,84,30.49,10.0,Calm,Calm,-,N/A,,Clear,0,2012-11-14 01:35:00
8:55 PM,28.9,24.4,83,30.49,10.0,Calm,Calm,-,N/A,,Clear,0,2012-11-14 01:55:00
9:15 PM,28.2,24.3,85,30.50,10.0,Calm,Calm,-,N/A,,Clear,0,2012-11-14 02:15:00
9:35 PM,27.5,23.7,86,30.51,10.0,Calm,Calm,-,N/A,,Clear,0,2012-11-14 02:35:00
10:15 PM,27.3,24.3,88,30.51,10.0,Calm,Calm,-,N/A,,Clear,0,2012-11-14 03:15:00
10:35 PM,26.6,23.9,90,30.51,10.0,Calm,Calm,-,N/A,,Clear,0,2012-11-14 03:35:00
10:55 PM,26.6,24.3,91,30.51,10.0,Calm,Calm,-,N/A,,Clear,0,2012-11-14 03:55:00
11:15 PM,25.7,23.4,91,30.51,10.0,Calm,Calm,-,N/A,,Clear,0,2012-11-14 04:15:00
11:35 PM,25.5,23.4,92,30.51,10.0,Calm,Calm,-,N/A,,Clear,0,2012-11-14 04:35:00
11:55 PM,25.0,23.0,92,30.50,10.0,Calm,Calm,-,N/A,,Clear,0,2012-11-14 04:55:00